Аэропорт
Игнатьево (UHBB)

 UHBB / BQS
ЗЦ Хабаровск
Хабаровск (UHHH)
Хабаровск (UHHH)
 50.42540, 127.41200  / 638 ft

 UHBB 201300Z 36003MPS 5000 -SN SCT033 M20/M22 Q1012 R36/491535 NOSIG RMK QFE742/0989
 TAF UHBB 201057Z 2012/2112 02003MPS 5000 BR SCT020 TEMPO 2012/2018 3100 -SN BKN011 BKN020 FM201800 34003G08MPS 9999 SCT030 TEMPO 2018/2024 3100 BR SCT011 SCT030 BECMG 2105/2108 16003MPS
uhbb_aip_1605, UHBB_j_0220
показать схемы
Название сценария Тип сценария Flight Simulator 9 Flight Simulator X Prepar3D v2 Prepar3D v3 Prepar3D v4 Prepar3D v5 xPlane
UHBB P3Dv4 бесплатный
uhbb-scenery-fs9-1406 бесплатный
uhbb-scenery-xpl-1209 бесплатный


2020 © VATRUS division (Privacy Policy)